Time;durP1;ratioP1;P1;durP2;ratioP2;P2;SDS_P1;SDS_P2;PMS_P1;PMS_P2;Temp;Humidity;BMP_temperature;BMP_pressure;BME280_temperature;BME280_humidity;BME280_pressure;Samples;Min_cycle;Max_cycle;Signal;HPM_P1;HPM_P2
2024/04/18 00:00:07;;;;;;;3.55;2.30;;;3.30;99.90;;;;;;5400322;26;20011;-63
2024/04/18 00:02:53;;;;;;;2.92;2.10;;;3.30;99.90;;;;;;5409444;26;20077;-63
2024/04/18 00:05:38;;;;;;;4.10;2.10;;;3.30;99.90;;;;;;5410880;26;19996;-63
2024/04/18 00:08:24;;;;;;;2.45;2.03;;;3.40;99.90;;;;;;5417266;26;20130;-63
2024/04/18 00:11:10;;;;;;;2.07;1.73;;;3.40;99.90;;;;;;5412237;26;20003;-63
2024/04/18 00:13:56;;;;;;;2.97;2.20;;;3.30;99.90;;;;;;5416266;26;19996;-62
2024/04/18 00:16:42;;;;;;;2.57;2.00;;;3.30;99.90;;;;;;5409473;26;20007;-63
2024/04/18 00:19:28;;;;;;;2.28;1.88;;;3.30;99.90;;;;;;5402608;26;20221;-63
2024/04/18 00:22:14;;;;;;;2.10;1.85;;;3.40;99.90;;;;;;5399906;26;20627;-63
2024/04/18 00:25:00;;;;;;;2.35;1.70;;;3.40;99.90;;;;;;5402062;26;19996;-63
2024/04/18 00:27:45;;;;;;;6.40;2.65;;;3.30;99.90;;;;;;5399066;26;20463;-63
2024/04/18 00:30:31;;;;;;;4.78;2.95;;;3.30;99.90;;;;;;5405676;26;20419;-63
2024/04/18 00:33:17;;;;;;;5.75;3.80;;;3.30;99.90;;;;;;5403113;26;19996;-63
2024/04/18 00:36:06;;;;;;;4.63;3.15;;;3.30;99.90;;;;;;5401683;26;20092;-63
2024/04/18 00:38:52;;;;;;;4.75;2.92;;;3.20;99.90;;;;;;5402745;26;20003;-63
2024/04/18 00:41:38;;;;;;;4.93;3.42;;;3.30;99.90;;;;;;5400897;26;20554;-61
2024/04/18 00:44:24;;;;;;;6.57;4.22;;;3.30;99.90;;;;;;5398695;26;20022;-63
2024/04/18 00:47:11;;;;;;;9.20;4.45;;;3.40;99.90;;;;;;5399443;26;20083;-63
2024/04/18 00:49:58;;;;;;;4.20;3.30;;;3.40;99.90;;;;;;5404104;26;20430;-63
2024/04/18 00:52:45;;;;;;;;;;;3.40;99.90;;;;;;5396897;26;20019;-63
2024/04/18 00:55:35;;;;;;;4.85;3.42;;;3.30;99.90;;;;;;5402916;26;20155;-60
2024/04/18 00:58:22;;;;;;;7.18;3.83;;;3.40;99.90;;;;;;5404273;26;20031;-60
2024/04/18 01:01:08;;;;;;;4.50;3.20;;;3.40;99.90;;;;;;5401961;26;20010;-60
2024/04/18 01:03:58;;;;;;;5.78;3.88;;;3.40;99.90;;;;;;5402777;26;20004;-60
2024/04/18 01:06:44;;;;;;;4.80;3.03;;;3.40;99.90;;;;;;5399100;26;20480;-60
2024/04/18 01:09:30;;;;;;;3.15;2.58;;;3.40;99.90;;;;;;5396147;26;20051;-60
2024/04/18 01:12:15;;;;;;;4.60;3.57;;;3.20;99.90;;;;;;5400148;26;20012;-61
2024/04/18 01:15:01;;;;;;;7.40;3.60;;;3.10;99.90;;;;;;5405035;26;20714;-60
2024/04/18 01:17:47;;;;;;;5.30;3.57;;;3.00;99.90;;;;;;5403773;26;19995;-60
2024/04/18 01:20:33;;;;;;;9.27;4.77;;;3.10;99.90;;;;;;5403148;26;20127;-60
2024/04/18 01:23:19;;;;;;;6.47;4.30;;;3.10;99.90;;;;;;5402237;26;20005;-60
2024/04/18 01:26:05;;;;;;;7.93;4.90;;;3.00;99.90;;;;;;5406270;26;20274;-60
2024/04/18 01:28:51;;;;;;;8.15;5.10;;;2.90;99.90;;;;;;5399758;26;20023;-61
2024/04/18 01:31:37;;;;;;;6.57;4.40;;;2.90;99.90;;;;;;5392866;26;20000;-61
2024/04/18 01:34:22;;;;;;;6.20;4.13;;;2.90;99.90;;;;;;5400272;26;20220;-61
2024/04/18 01:37:11;;;;;;;6.17;4.70;;;3.00;99.90;;;;;;5401930;26;19992;-61
2024/04/18 01:39:56;;;;;;;7.57;4.70;;;3.00;99.90;;;;;;5401570;26;19995;-61
2024/04/18 01:42:42;;;;;;;8.33;5.20;;;3.10;99.90;;;;;;5404019;26;19995;-61
2024/04/18 01:45:28;;;;;;;7.20;4.60;;;3.00;99.90;;;;;;5403681;26;19999;-61
2024/04/18 01:48:14;;;;;;;10.33;6.60;;;3.00;99.90;;;;;;5404051;26;19996;-61
2024/04/18 01:51:02;;;;;;;11.65;6.47;;;2.90;99.90;;;;;;5378243;26;20219;-61
2024/04/18 01:53:48;;;;;;;9.77;5.97;;;2.80;99.90;;;;;;5408790;26;20047;-61
2024/04/18 01:56:34;;;;;;;8.15;5.60;;;2.70;99.90;;;;;;5397559;26;20076;-61
2024/04/18 01:59:20;;;;;;;8.97;6.33;;;2.70;99.90;;;;;;5404845;26;20015;-61
2024/04/18 02:02:06;;;;;;;11.50;7.68;;;2.80;99.90;;;;;;5399697;26;20022;-61
2024/04/18 02:04:52;;;;;;;14.50;7.53;;;2.90;99.90;;;;;;5395380;26;19999;-61
2024/04/18 02:07:38;;;;;;;11.43;7.60;;;2.90;99.90;;;;;;5406634;26;20000;-61
2024/04/18 02:10:23;;;;;;;10.43;6.70;;;3.00;99.90;;;;;;5402126;26;20006;-61
2024/04/18 02:13:09;;;;;;;15.38;7.75;;;3.10;99.90;;;;;;5411308;26;19995;-62
2024/04/18 02:15:55;;;;;;;9.80;7.20;;;3.20;99.90;;;;;;5399203;26;20040;-62
2024/04/18 02:18:41;;;;;;;8.48;6.45;;;3.20;99.90;;;;;;5407512;26;20065;-62
2024/04/18 02:21:27;;;;;;;8.73;5.88;;;3.20;99.90;;;;;;5405414;26;20909;-62
2024/04/18 02:24:13;;;;;;;8.82;5.78;;;3.20;99.90;;;;;;5376041;26;20003;-62
2024/04/18 02:26:58;;;;;;;9.68;6.75;;;3.20;99.90;;;;;;5397765;26;19995;-62
2024/04/18 02:29:44;;;;;;;8.97;6.50;;;3.20;99.90;;;;;;5400041;26;20023;-62
2024/04/18 02:32:30;;;;;;;8.00;5.65;;;3.10;99.90;;;;;;5402338;26;20311;-62
2024/04/18 02:35:16;;;;;;;8.90;5.80;;;3.20;99.90;;;;;;5407251;26;19999;-62
2024/04/18 02:38:02;;;;;;;6.83;4.83;;;3.20;99.90;;;;;;5405761;26;19999;-62
2024/04/18 02:40:48;;;;;;;7.63;5.23;;;3.20;99.90;;;;;;5404332;26;20489;-62
2024/04/18 02:43:34;;;;;;;7.80;5.05;;;3.20;99.90;;;;;;5405650;26;19995;-62
2024/04/18 02:46:21;;;;;;;8.15;5.38;;;3.20;99.90;;;;;;5398357;26;20023;-62
2024/04/18 02:49:07;;;;;;;;;;;3.30;99.90;;;;;;5405973;26;20064;-62
2024/04/18 02:51:53;;;;;;;9.77;4.82;;;3.30;99.90;;;;;;5399199;26;19932;-62
2024/04/18 02:54:39;;;;;;;9.07;5.47;;;3.30;99.90;;;;;;5399380;26;20092;-62
2024/04/18 02:57:25;;;;;;;8.93;5.53;;;3.20;99.90;;;;;;5398155;26;20022;-62
2024/04/18 03:00:11;;;;;;;10.70;5.25;;;3.20;99.90;;;;;;5402587;26;20019;-62
2024/04/18 03:02:56;;;;;;;8.38;5.38;;;3.10;99.90;;;;;;5404252;26;19999;-62
2024/04/18 03:05:42;;;;;;;6.75;4.75;;;3.10;99.90;;;;;;5395185;26;20000;-62
2024/04/18 03:08:28;;;;;;;7.13;4.75;;;3.10;99.90;;;;;;5404753;26;20627;-62
2024/04/18 03:11:14;;;;;;;7.30;4.73;;;3.00;99.90;;;;;;5403879;26;20551;-62
2024/04/18 03:14:00;;;;;;;7.65;5.80;;;3.00;99.90;;;;;;5401906;26;20011;-62
2024/04/18 03:16:50;;;;;;;9.07;5.85;;;3.10;99.90;;;;;;5400700;26;19992;-62
2024/04/18 03:19:38;;;;;;;9.25;5.60;;;3.10;99.90;;;;;;5358877;26;20452;-62
2024/04/18 03:22:24;;;;;;;9.55;6.00;;;3.10;99.90;;;;;;5401709;26;20011;-62
2024/04/18 03:25:09;;;;;;;13.77;5.50;;;3.10;99.90;;;;;;5403911;26;20069;-62
2024/04/18 03:27:55;;;;;;;7.03;4.77;;;3.10;99.90;;;;;;5400126;26;20577;-62
2024/04/18 03:30:41;;;;;;;11.57;6.50;;;3.20;99.90;;;;;;5392995;26;20006;-62
2024/04/18 03:33:27;;;;;;;7.57;5.47;;;3.10;99.90;;;;;;5403402;26;20008;-62
2024/04/18 03:36:13;;;;;;;8.70;5.60;;;3.10;99.90;;;;;;5389780;26;20011;-62
2024/04/18 03:39:00;;;;;;;7.00;4.88;;;3.20;99.90;;;;;;5400698;26;19996;-62
2024/04/18 03:41:47;;;;;;;8.75;4.85;;;3.20;99.90;;;;;;5397724;26;20003;-62
2024/04/18 03:44:33;;;;;;;12.50;6.32;;;3.20;99.90;;;;;;5398974;26;20002;-62
2024/04/18 03:47:19;;;;;;;8.02;5.18;;;3.30;99.90;;;;;;5402866;26;20006;-62
2024/04/18 03:50:05;;;;;;;7.27;5.00;;;3.20;99.90;;;;;;5394324;26;20460;-62
2024/04/18 03:52:51;;;;;;;9.70;5.97;;;3.30;99.90;;;;;;5402729;26;20017;-62
2024/04/18 03:55:37;;;;;;;11.15;6.38;;;3.30;99.90;;;;;;5404202;26;20457;-62
2024/04/18 03:58:22;;;;;;;7.63;5.33;;;3.40;99.90;;;;;;5405453;26;20007;-62
2024/04/18 04:01:08;;;;;;;11.90;5.85;;;3.40;99.90;;;;;;5404812;26;19991;-62
2024/04/18 04:03:54;;;;;;;8.17;6.00;;;3.40;99.90;;;;;;5397357;26;19992;-62
2024/04/18 04:06:40;;;;;;;10.10;6.30;;;3.40;99.90;;;;;;5397998;26;20081;-62
2024/04/18 04:09:26;;;;;;;9.75;6.28;;;3.40;99.90;;;;;;5398777;26;20026;-62
2024/04/18 04:12:12;;;;;;;8.17;5.83;;;3.40;99.90;;;;;;5404274;26;20431;-62
2024/04/18 04:14:58;;;;;;;10.43;7.27;;;3.40;99.90;;;;;;5403114;26;20000;-62
2024/04/18 04:17:45;;;;;;;9.95;6.68;;;3.50;99.90;;;;;;5402498;26;19999;-62
2024/04/18 04:20:31;;;;;;;7.80;5.47;;;3.50;99.90;;;;;;5405413;26;21922;-62
2024/04/18 04:23:17;;;;;;;14.07;8.20;;;3.50;99.90;;;;;;5406302;26;20471;-62
2024/04/18 04:26:03;;;;;;;12.60;7.43;;;3.50;99.90;;;;;;5406264;26;20041;-62
2024/04/18 04:28:48;;;;;;;17.90;9.43;;;3.50;99.90;;;;;;5403664;26;20003;-62
2024/04/18 04:31:34;;;;;;;14.02;8.30;;;3.40;99.90;;;;;;5401020;26;20237;-62
2024/04/18 04:34:20;;;;;;;16.17;9.55;;;3.30;99.90;;;;;;5404607;26;20093;-62
2024/04/18 04:37:06;;;;;;;17.10;9.73;;;3.40;99.90;;;;;;5402161;26;20146;-62
2024/04/18 04:39:52;;;;;;;16.35;9.60;;;3.40;99.90;;;;;;5398367;26;19991;-62
2024/04/18 04:42:37;;;;;;;14.05;9.63;;;3.40;99.90;;;;;;5404106;26;20456;-62
2024/04/18 04:45:23;;;;;;;13.57;8.27;;;3.40;99.90;;;;;;5398351;26;19995;-62
2024/04/18 04:48:09;;;;;;;17.47;10.27;;;3.40;99.90;;;;;;5402068;26;20392;-61
2024/04/18 04:51:00;;;;;;;17.05;9.95;;;3.40;99.90;;;;;;5398810;26;20007;-62
2024/04/18 04:53:46;;;;;;;17.80;10.20;;;3.30;99.90;;;;;;5405755;26;20034;-62
2024/04/18 04:56:32;;;;;;;13.95;9.32;;;3.30;99.90;;;;;;5402536;26;20023;-62
2024/04/18 04:59:17;;;;;;;17.52;10.35;;;3.30;99.90;;;;;;5406065;26;20459;-62
2024/04/18 05:02:04;;;;;;;16.60;10.43;;;3.40;99.90;;;;;;5401282;26;20459;-62
2024/04/18 05:04:50;;;;;;;15.98;10.02;;;3.40;99.90;;;;;;5396031;26;20015;-62
2024/04/18 05:07:36;;;;;;;18.33;11.10;;;3.50;99.90;;;;;;5402060;26;20022;-62
2024/04/18 05:10:22;;;;;;;15.93;10.55;;;3.50;99.90;;;;;;5404332;26;20046;-62
2024/04/18 05:13:08;;;;;;;18.17;10.97;;;3.50;99.90;;;;;;5404206;26;20009;-62
2024/04/18 05:15:54;;;;;;;22.17;11.85;;;3.50;99.90;;;;;;5411841;26;20004;-62
2024/04/18 05:18:39;;;;;;;18.90;11.50;;;3.50;99.90;;;;;;5399578;26;19995;-62
2024/04/18 05:21:25;;;;;;;21.80;10.50;;;3.40;99.90;;;;;;5402403;26;20014;-62
2024/04/18 05:24:11;;;;;;;12.70;9.00;;;3.50;99.90;;;;;;5405165;26;20007;-62
2024/04/18 05:26:57;;;;;;;15.02;9.82;;;3.60;99.90;;;;;;5405258;26;20028;-62
2024/04/18 05:32:47;;;;;;;13.82;9.75;;;3.60;99.90;;;;;;5399388;26;20309;-62
2024/04/18 05:35:33;;;;;;;15.57;8.27;;;3.70;99.90;;;;;;5399471;26;20028;-62
2024/04/18 05:38:19;;;;;;;19.80;9.73;;;3.70;99.90;;;;;;5402901;26;19995;-62
2024/04/18 05:41:05;;;;;;;17.80;11.13;;;3.70;99.90;;;;;;5405016;26;19996;-62
2024/04/18 05:43:51;;;;;;;23.17;13.80;;;3.70;99.90;;;;;;5408132;26;20080;-62
2024/04/18 05:46:37;;;;;;;19.02;12.45;;;3.60;99.90;;;;;;5402093;26;20011;-62
2024/04/18 05:49:23;;;;;;;19.25;10.95;;;3.60;99.90;;;;;;5407710;26;20006;-62
2024/04/18 05:52:09;;;;;;;12.17;7.63;;;3.60;99.90;;;;;;5402239;26;20567;-62
2024/04/18 05:54:55;;;;;;;19.65;11.45;;;3.70;99.90;;;;;;5403508;26;20003;-62
2024/04/18 05:57:41;;;;;;;17.73;10.68;;;3.80;99.90;;;;;;5401888;26;20010;-62
2024/04/18 06:00:26;;;;;;;16.75;9.60;;;3.80;99.90;;;;;;5400760;26;19996;-62
2024/04/18 06:03:12;;;;;;;17.27;10.30;;;3.80;99.90;;;;;;5405839;26;19999;-62
2024/04/18 06:05:59;;;;;;;16.17;9.37;;;3.80;99.90;;;;;;5403664;26;20013;-62
2024/04/18 06:08:44;;;;;;;15.50;9.73;;;3.90;99.90;;;;;;5412066;26;19995;-62
2024/04/18 06:11:41;;;;;;;19.88;10.35;;;3.90;99.90;;;;;;5400682;26;20064;-62
2024/04/18 06:14:27;;;;;;;17.15;10.15;;;3.90;99.90;;;;;;5400168;26;20007;-62
2024/04/18 06:17:13;;;;;;;14.57;9.63;;;3.90;99.90;;;;;;5402095;26;19999;-62
2024/04/18 06:19:59;;;;;;;17.15;11.07;;;4.00;99.90;;;;;;5402797;26;20466;-62
2024/04/18 06:22:45;;;;;;;15.75;10.25;;;4.10;99.90;;;;;;5406528;26;20454;-62
2024/04/18 06:25:31;;;;;;;16.25;10.90;;;4.10;99.90;;;;;;5395286;26;19996;-62
2024/04/18 06:28:17;;;;;;;;;;;4.10;99.90;;;;;;5398888;26;20000;-62
2024/04/18 06:31:03;;;;;;;19.55;11.30;;;4.20;99.90;;;;;;5405748;26;20797;-62
2024/04/18 06:33:49;;;;;;;19.23;11.68;;;4.30;99.90;;;;;;5395916;26;20018;-62
2024/04/18 06:36:35;;;;;;;17.70;10.90;;;4.50;99.90;;;;;;5400679;26;20004;-62
2024/04/18 06:39:21;;;;;;;16.83;11.37;;;4.60;99.90;;;;;;5403232;26;20014;-62
2024/04/18 06:42:07;;;;;;;18.67;10.70;;;4.70;99.90;;;;;;5401005;26;19999;-62
2024/04/18 06:44:53;;;;;;;15.80;9.90;;;4.90;99.90;;;;;;5377122;26;20315;-62
2024/04/18 06:47:38;;;;;;;14.80;9.60;;;5.30;99.90;;;;;;5402877;26;20448;-62
2024/04/18 06:50:26;;;;;;;15.77;9.75;;;6.40;99.90;;;;;;5405201;26;20804;-62
2024/04/18 06:53:12;;;;;;;11.65;8.52;;;7.10;99.90;;;;;;5402056;26;20015;-62
2024/04/18 06:55:59;;;;;;;15.32;9.63;;;7.10;99.90;;;;;;5401970;26;20472;-63
2024/04/18 06:58:46;;;;;;;13.48;9.48;;;7.50;99.90;;;;;;5403961;26;20007;-63
2024/04/18 07:01:32;;;;;;;13.15;8.82;;;7.30;99.90;;;;;;5405588;26;20000;-62
2024/04/18 07:04:18;;;;;;;11.13;8.32;;;7.30;99.90;;;;;;5395613;26;20080;-62
2024/04/18 07:07:06;;;;;;;11.02;7.63;;;7.30;99.90;;;;;;5400926;26;19991;-62
2024/04/18 07:09:52;;;;;;;13.10;7.18;;;6.90;99.90;;;;;;5398585;26;20005;-62
2024/04/18 07:12:38;;;;;;;11.00;7.67;;;6.70;99.90;;;;;;5399750;26;20022;-62
2024/04/18 07:15:24;;;;;;;11.97;6.77;;;6.30;99.90;;;;;;5403052;26;20602;-62
2024/04/18 07:18:10;;;;;;;12.95;6.93;;;6.20;99.90;;;;;;5401034;26;20018;-62
2024/04/18 07:20:56;;;;;;;9.15;6.55;;;6.10;99.90;;;;;;5398600;26;20552;-62
2024/04/18 07:23:42;;;;;;;10.43;6.97;;;6.30;99.90;;;;;;5406231;26;20543;-62
2024/04/18 07:26:28;;;;;;;8.52;6.28;;;6.40;99.90;;;;;;5398753;26;19999;-62
2024/04/18 07:29:13;;;;;;;8.90;6.30;;;6.30;99.90;;;;;;5409962;26;19996;-62
2024/04/18 07:31:59;;;;;;;7.75;5.80;;;6.10;99.90;;;;;;5401533;26;19995;-62
2024/04/18 07:34:45;;;;;;;10.35;7.18;;;6.30;99.90;;;;;;5405044;26;20297;-62
2024/04/18 07:37:31;;;;;;;10.97;6.77;;;6.10;99.90;;;;;;5403278;26;20031;-62
2024/04/18 07:40:21;;;;;;;9.63;5.90;;;6.20;99.90;;;;;;5397862;26;19996;-62
2024/04/18 07:43:06;;;;;;;10.52;5.57;;;5.90;99.90;;;;;;5404173;26;20016;-62
2024/04/18 07:45:52;;;;;;;9.73;6.53;;;5.70;99.90;;;;;;5397302;26;20020;-62
2024/04/18 07:48:39;;;;;;;12.37;6.93;;;5.50;99.90;;;;;;5412670;26;20003;-62
2024/04/18 07:51:25;;;;;;;18.25;8.05;;;5.60;99.90;;;;;;5406360;26;20010;-62
2024/04/18 07:54:11;;;;;;;10.32;6.88;;;5.40;99.90;;;;;;5406297;26;20076;-62
2024/04/18 07:56:56;;;;;;;10.77;7.28;;;5.20;99.90;;;;;;5404071;26;20018;-62
2024/04/18 07:59:42;;;;;;;14.10;8.77;;;5.10;99.90;;;;;;5409269;26;19996;-62
2024/04/18 08:02:28;;;;;;;17.63;9.20;;;5.00;99.90;;;;;;5405293;26;19996;-62
2024/04/18 08:05:14;;;;;;;15.90;7.80;;;5.20;99.90;;;;;;5403361;26;20007;-62
2024/04/18 08:08:00;;;;;;;10.95;7.57;;;5.40;99.90;;;;;;5410213;26;20003;-62
2024/04/18 08:10:46;;;;;;;12.57;7.70;;;5.50;99.90;;;;;;5406074;26;20080;-62
2024/04/18 08:13:32;;;;;;;13.10;7.82;;;5.40;99.90;;;;;;5404351;26;20646;-62
2024/04/18 08:16:18;;;;;;;13.35;8.35;;;5.30;99.90;;;;;;5402106;26;20010;-62
2024/04/18 08:19:03;;;;;;;13.18;7.38;;;5.30;99.90;;;;;;5408758;26;20504;-62
2024/04/18 08:21:49;;;;;;;13.43;8.13;;;5.50;99.90;;;;;;5400648;26;21621;-63
2024/04/18 08:24:35;;;;;;;13.15;7.72;;;5.60;99.90;;;;;;5365356;26;20036;-62
2024/04/18 08:27:21;;;;;;;13.70;8.00;;;5.70;99.90;;;;;;5400060;26;20088;-62
2024/04/18 08:30:08;;;;;;;10.77;7.40;;;5.60;99.90;;;;;;5395005;26;20018;-62
2024/04/18 08:32:53;;;;;;;14.02;8.20;;;5.70;99.90;;;;;;5396144;26;20000;-62
2024/04/18 08:35:39;;;;;;;15.52;7.68;;;5.70;99.90;;;;;;5402182;26;20010;-62
2024/04/18 08:38:25;;;;;;;12.35;8.20;;;5.90;99.90;;;;;;5398115;26;20004;-62
2024/04/18 08:41:12;;;;;;;11.82;7.78;;;5.90;99.90;;;;;;5397226;26;19996;-62
2024/04/18 08:44:00;;;;;;;11.25;7.88;;;5.90;99.90;;;;;;5405867;26;20005;-62
2024/04/18 08:46:47;;;;;;;12.18;7.28;;;5.80;99.90;;;;;;5405766;26;19999;-62
2024/04/18 08:49:37;;;;;;;13.02;7.18;;;5.90;99.90;;;;;;5404904;26;20010;-62
2024/04/18 08:52:23;;;;;;;11.55;7.38;;;6.10;99.90;;;;;;5398660;26;20006;-62
2024/04/18 08:55:10;;;;;;;14.07;8.38;;;6.30;99.90;;;;;;5404105;26;20101;-63
2024/04/18 08:58:03;;;;;;;13.25;8.40;;;6.50;99.90;;;;;;5402679;26;20014;-62
2024/04/18 09:00:49;;;;;;;14.02;8.80;;;6.40;99.90;;;;;;5403625;26;20683;-62
2024/04/18 09:03:36;;;;;;;18.13;9.63;;;6.30;99.90;;;;;;5404873;26;20015;-62
2024/04/18 09:06:22;;;;;;;16.80;8.73;;;6.20;99.90;;;;;;5400138;26;20010;-62
2024/04/18 09:09:16;;;;;;;13.57;8.52;;;6.00;99.90;;;;;;5405628;26;20007;-62
2024/04/18 09:12:03;;;;;;;16.30;9.23;;;6.10;99.90;;;;;;5403954;26;20091;-62
2024/04/18 09:14:49;;;;;;;11.15;8.00;;;6.40;99.90;;;;;;5404057;26;20296;-62
2024/04/18 09:17:35;;;;;;;12.23;7.72;;;6.40;99.90;;;;;;5405289;26;19991;-62
2024/04/18 09:20:21;;;;;;;12.10;7.82;;;6.50;99.90;;;;;;5399327;26;20012;-62
2024/04/18 09:23:08;;;;;;;14.90;7.40;;;6.50;99.90;;;;;;5405556;26;20011;-63
2024/04/18 09:25:54;;;;;;;9.63;7.05;;;6.50;99.90;;;;;;5381512;21;20000;-66
2024/04/18 09:28:40;;;;;;;11.30;6.75;;;6.70;99.90;;;;;;5356045;26;20004;-66
2024/04/18 09:31:27;;;;;;;9.77;6.65;;;6.70;99.90;;;;;;5354837;26;19996;-66
2024/04/18 09:34:15;;;;;;;12.70;7.53;;;6.50;99.90;;;;;;5371635;26;20012;-66
2024/04/18 09:37:07;;;;;;;17.08;7.50;;;6.40;99.90;;;;;;5400594;26;20004;-66
2024/04/18 09:39:56;;;;;;;9.23;6.70;;;6.40;99.90;;;;;;5398572;26;20023;-66
2024/04/18 09:42:48;;;;;;;10.32;6.78;;;6.40;99.90;;;;;;5403690;26;19996;-66
2024/04/18 09:45:46;;;;;;;11.52;6.75;;;6.60;99.90;;;;;;5396988;26;20517;-66
2024/04/18 09:48:32;;;;;;;;;;;6.70;99.90;;;;;;5403690;26;20010;-66
2024/04/18 09:51:19;;;;;;;9.95;4.97;;;6.80;99.90;;;;;;5396121;26;19956;-66
2024/04/18 09:54:05;;;;;;;10.40;6.18;;;7.10;99.90;;;;;;5404201;26;20103;-67
2024/04/18 09:56:53;;;;;;;10.32;5.68;;;7.40;99.90;;;;;;5403852;26;20010;-71
2024/04/18 10:02:15;;;;;;;10.77;6.03;;;7.60;99.90;;;;;;5755018;21;20000;-65
2024/04/18 10:05:01;;;;;;;11.73;6.38;;;7.40;99.90;;;;;;5370977;26;20018;-64
2024/04/18 10:07:48;;;;;;;9.75;5.80;;;7.30;99.90;;;;;;5386962;26;20011;-65
2024/04/18 10:10:36;;;;;;;;;;;7.10;99.90;;;;;;5386228;26;20014;-65
2024/04/18 10:13:25;;;;;;;10.00;5.47;;;7.00;99.90;;;;;;5414396;26;19989;-65
2024/04/18 10:16:12;;;;;;;9.13;5.20;;;7.00;99.90;;;;;;5421796;26;19995;-65
2024/04/18 10:19:09;;;;;;;7.15;4.90;;;7.10;99.90;;;;;;5424461;26;19995;-65
2024/04/18 10:21:56;;;;;;;6.38;4.63;;;7.40;99.90;;;;;;5419445;26;20010;-65
2024/04/18 10:24:42;;;;;;;9.20;5.53;;;7.50;99.90;;;;;;5418713;26;20096;-65
2024/04/18 10:27:28;;;;;;;15.67;4.80;;;7.50;99.90;;;;;;5421524;26;20027;-65
2024/04/18 10:30:17;;;;;;;7.20;4.45;;;7.30;99.90;;;;;;5405779;26;20009;-65
2024/04/18 10:33:06;;;;;;;13.52;5.35;;;7.30;99.90;;;;;;5390067;26;20004;-65
2024/04/18 10:35:53;;;;;;;9.20;4.18;;;7.10;99.90;;;;;;5393455;26;20079;-65
2024/04/18 10:38:46;;;;;;;8.52;4.70;;;7.10;99.90;;;;;;5401193;26;20595;-65
2024/04/18 10:41:43;;;;;;;6.97;4.05;;;7.00;99.90;;;;;;5411624;26;19999;-65
2024/04/18 10:44:29;;;;;;;8.23;4.23;;;7.10;99.90;;;;;;5417216;26;20013;-65
2024/04/18 10:47:20;;;;;;;5.68;4.13;;;7.50;99.90;;;;;;5414957;26;20046;-65
2024/04/18 10:50:07;;;;;;;5.80;3.83;;;7.80;99.90;;;;;;5414015;26;20003;-65
2024/04/18 10:52:54;;;;;;;7.72;4.28;;;7.80;99.90;;;;;;5409719;26;20420;-65
2024/04/18 10:55:40;;;;;;;7.18;4.13;;;7.60;99.90;;;;;;5401637;26;20560;-66
2024/04/18 10:58:26;;;;;;;10.27;3.87;;;7.30;99.90;;;;;;5403299;26;19998;-65
2024/04/18 11:01:19;;;;;;;6.32;3.80;;;7.20;99.90;;;;;;5415915;26;20024;-65
2024/04/18 11:04:05;;;;;;;9.65;4.38;;;7.10;99.90;;;;;;5398597;26;20104;-65
2024/04/18 11:06:51;;;;;;;7.72;3.72;;;7.10;99.90;;;;;;5409990;26;20021;-65
2024/04/18 11:09:39;;;;;;;8.07;4.28;;;6.90;99.90;;;;;;5415220;26;20018;-65
2024/04/18 11:12:25;;;;;;;8.93;4.00;;;7.00;99.90;;;;;;5412773;26;20556;-65
2024/04/18 11:15:16;;;;;;;5.63;4.20;;;7.20;99.90;;;;;;5405268;26;20003;-65
2024/04/18 11:18:06;;;;;;;8.02;4.10;;;7.30;99.90;;;;;;5412507;26;20001;-65
2024/04/18 11:20:52;;;;;;;6.07;3.80;;;7.80;99.90;;;;;;5412563;26;20000;-65
2024/04/18 11:23:39;;;;;;;4.88;3.50;;;7.60;99.90;;;;;;5411628;26;19999;-65
2024/04/18 11:26:26;;;;;;;7.30;3.30;;;7.30;99.90;;;;;;5415177;26;19996;-66
2024/04/18 11:29:11;;;;;;;;;;;7.30;99.90;;;;;;5416283;26;19999;-66
2024/04/18 11:32:07;;;;;;;6.55;3.05;;;7.30;99.90;;;;;;5419532;26;19924;-63
2024/04/18 11:34:53;;;;;;;4.72;2.70;;;7.40;99.90;;;;;;5412285;26;20096;-63
2024/04/18 11:37:39;;;;;;;3.70;1.70;;;7.60;99.90;;;;;;5410699;26;19995;-64
2024/04/18 11:40:26;;;;;;;2.28;1.23;;;7.70;99.90;;;;;;5408797;26;20091;-65
2024/04/18 11:43:12;;;;;;;2.83;1.38;;;8.00;99.90;;;;;;5410781;26;20510;-65
2024/04/18 11:45:58;;;;;;;7.45;1.27;;;8.30;99.90;;;;;;5409307;26;20779;-64
2024/04/18 11:48:44;;;;;;;2.38;1.15;;;8.60;99.90;;;;;;5406681;26;20077;-65
2024/04/18 11:51:30;;;;;;;6.38;1.67;;;8.80;99.90;;;;;;5405345;26;20091;-65
2024/04/18 11:54:16;;;;;;;5.55;2.28;;;9.10;99.90;;;;;;5379524;26;20014;-65
2024/04/18 11:57:02;;;;;;;4.20;1.20;;;9.10;99.90;;;;;;5409618;26;19999;-64
2024/04/18 11:59:48;;;;;;;6.22;0.93;;;9.50;99.90;;;;;;5402198;26;20076;-65
2024/04/18 12:02:35;;;;;;;3.03;1.48;;;9.50;99.90;;;;;;5405094;26;20446;-65
2024/04/18 12:05:24;;;;;;;4.35;1.63;;;9.10;99.90;;;;;;5406929;26;19992;-65
2024/04/18 12:08:11;;;;;;;3.50;1.30;;;8.90;99.90;;;;;;5404051;26;20011;-65
2024/04/18 12:13:46;;;;;;;2.20;1.15;;;8.80;99.90;;;;;;5636286;21;19997;-62
2024/04/18 12:16:32;;;;;;;3.05;1.33;;;8.90;99.90;;;;;;5361940;26;20015;-62
2024/04/18 12:19:18;;;;;;;11.80;2.92;;;8.80;99.90;;;;;;5366761;26;20008;-64
2024/04/18 12:22:06;;;;;;;2.10;1.20;;;8.60;99.90;;;;;;5353904;26;20011;-63
2024/04/18 12:24:52;;;;;;;3.42;1.95;;;8.50;99.90;;;;;;5357414;26;20010;-63
2024/04/18 12:27:38;;;;;;;3.40;1.90;;;8.40;99.90;;;;;;5360636;26;20081;-64
2024/04/18 12:30:24;;;;;;;6.72;1.70;;;8.40;99.90;;;;;;5359607;26;20065;-63
2024/04/18 12:33:12;;;;;;;6.82;2.28;;;8.50;99.90;;;;;;5360532;26;19992;-63
2024/04/18 12:35:58;;;;;;;5.40;1.90;;;8.60;99.90;;;;;;5364119;26;20511;-64
2024/04/18 12:38:46;;;;;;;7.05;2.38;;;8.70;99.90;;;;;;5345808;26;20078;-64
2024/04/18 12:41:32;;;;;;;6.43;3.20;;;8.60;99.90;;;;;;5359499;26;19997;-63
2024/04/18 12:44:19;;;;;;;6.45;2.70;;;8.30;99.90;;;;;;5361963;26;20007;-63
2024/04/18 12:47:05;;;;;;;6.28;3.28;;;8.20;99.90;;;;;;5361763;26;19992;-63
2024/04/18 12:49:51;;;;;;;5.57;2.90;;;8.00;99.90;;;;;;5358000;26;20089;-63
2024/04/18 12:52:37;;;;;;;7.43;3.58;;;7.80;99.90;;;;;;5361988;26;20235;-63
2024/04/18 12:55:23;;;;;;;4.40;2.90;;;7.60;99.90;;;;;;5364464;26;20089;-62
2024/04/18 12:58:09;;;;;;;14.90;5.47;;;7.60;99.90;;;;;;5349797;26;20048;-63
2024/04/18 13:00:55;;;;;;;8.35;3.95;;;7.40;99.90;;;;;;5349049;26;20326;-63
2024/04/18 13:03:41;;;;;;;7.18;4.43;;;7.50;99.90;;;;;;5347934;26;20049;-63
2024/04/18 13:06:27;;;;;;;7.15;4.20;;;7.80;99.90;;;;;;5362998;26;20514;-63
2024/04/18 13:09:13;;;;;;;8.85;5.07;;;7.90;99.90;;;;;;5353502;26;20009;-63
2024/04/18 13:12:01;;;;;;;8.07;4.82;;;7.90;99.90;;;;;;5351033;26;19997;-63
2024/04/18 13:14:47;;;;;;;8.05;4.85;;;7.70;99.90;;;;;;5356430;26;19996;-62
2024/04/18 13:17:33;;;;;;;8.88;4.55;;;7.90;99.90;;;;;;5355292;26;20004;-63
2024/04/18 13:20:19;;;;;;;7.60;4.55;;;7.90;99.90;;;;;;5366470;26;20011;-63
2024/04/18 13:23:04;;;;;;;7.00;4.05;;;8.00;99.90;;;;;;5353156;26;19996;-65
2024/04/18 13:25:52;;;;;;;8.95;4.15;;;8.30;99.90;;;;;;5351889;26;20338;-64
2024/04/18 13:28:38;;;;;;;4.78;2.60;;;8.30;99.90;;;;;;5345789;26;22667;-63
2024/04/18 13:31:24;;;;;;;6.45;3.10;;;8.50;99.90;;;;;;5358569;26;20011;-68
2024/04/18 13:34:10;;;;;;;7.90;3.90;;;8.50;99.90;;;;;;5346875;26;20036;-68
2024/04/18 13:36:56;;;;;;;5.47;2.78;;;8.60;99.90;;;;;;5365117;26;20019;-66
2024/04/18 13:39:44;;;;;;;5.75;2.95;;;9.00;99.90;;;;;;5356741;26;20358;-65
2024/04/18 13:42:30;;;;;;;8.70;2.92;;;8.80;99.90;;;;;;5360513;26;20416;-65
2024/04/18 13:45:16;;;;;;;7.00;2.47;;;8.90;99.90;;;;;;5356216;26;20328;-64
2024/04/18 13:48:03;;;;;;;7.18;2.15;;;8.80;99.90;;;;;;5361620;26;20064;-67
2024/04/18 13:50:51;;;;;;;4.25;2.15;;;8.90;99.90;;;;;;5356343;26;20012;-67
2024/04/18 13:53:37;;;;;;;3.38;1.70;;;9.00;99.90;;;;;;5349906;26;20008;-67
2024/04/18 13:56:26;;;;;;;5.07;1.77;;;8.90;99.90;;;;;;5368617;26;20000;-67
2024/04/18 13:59:11;;;;;;;3.83;1.70;;;9.10;99.90;;;;;;5352660;26;20578;-66
2024/04/18 14:01:59;;;;;;;10.93;1.70;;;9.10;99.90;;;;;;5354091;26;20000;-67
2024/04/18 14:04:45;;;;;;;5.63;1.60;;;9.20;99.90;;;;;;5361593;26;20073;-67
2024/04/18 14:07:31;;;;;;;5.18;1.80;;;9.30;99.90;;;;;;5359781;26;19997;-66
2024/04/18 14:10:18;;;;;;;3.17;1.30;;;9.40;99.90;;;;;;5353549;26;20000;-66
2024/04/18 14:13:04;;;;;;;7.47;1.85;;;9.60;99.90;;;;;;5359702;26;20008;-67
2024/04/18 14:18:57;;;;;;;7.47;2.72;;;9.30;99.90;;;;;;5356019;26;20311;-67
2024/04/18 14:21:43;;;;;;;4.75;1.80;;;9.10;99.90;;;;;;5351272;26;20000;-67
2024/04/18 14:24:29;;;;;;;9.13;1.75;;;9.20;99.90;;;;;;5356436;26;19997;-64
2024/04/18 14:27:15;;;;;;;5.82;1.75;;;9.20;99.90;;;;;;5349483;26;20000;-64
2024/04/18 14:30:01;;;;;;;5.68;1.77;;;9.20;99.90;;;;;;5362319;26;20005;-65
2024/04/18 14:32:47;;;;;;;9.83;2.60;;;9.00;99.90;;;;;;5356198;26;20013;-63
2024/04/18 14:35:33;;;;;;;6.78;2.00;;;8.90;99.90;;;;;;5359568;26;20282;-64
2024/04/18 14:38:19;;;;;;;3.58;1.65;;;8.90;99.90;;;;;;5335890;26;20576;-63
2024/04/18 14:41:05;;;;;;;5.80;2.10;;;8.90;99.90;;;;;;5336427;26;20011;-63
2024/04/18 14:43:51;;;;;;;6.75;1.90;;;8.70;99.90;;;;;;5350562;26;20012;-64